Time;durP1;ratioP1;P1;durP2;ratioP2;P2;SDS_P1;SDS_P2;PMS_P1;PMS_P2;Temp;Humidity;BMP_temperature;BMP_pressure;BME280_temperature;BME280_humidity;BME280_pressure;Samples;Min_cycle;Max_cycle;Signal;HPM_P1;HPM_P2
2022/05/17 00:00:11;;;;;;;5.65;4.13;;;17.40;99.90;;;;;;5035776;28;20229;-72
2022/05/17 00:02:39;;;;;;;3.75;3.45;;;17.40;99.90;;;;;;5025284;28;20181;-72
2022/05/17 00:05:05;;;;;;;4.18;3.47;;;17.30;99.90;;;;;;5034471;28;20275;-72
2022/05/17 00:07:31;;;;;;;4.85;4.10;;;17.30;99.90;;;;;;5030398;28;20246;-73
2022/05/17 00:09:56;;;;;;;4.95;3.97;;;17.30;99.90;;;;;;5041100;28;20193;-72
2022/05/17 00:12:22;;;;;;;4.80;4.07;;;17.30;99.90;;;;;;5036807;28;20256;-72
2022/05/17 00:14:48;;;;;;;5.40;4.03;;;17.30;99.90;;;;;;5033275;28;20208;-71
2022/05/17 00:17:13;;;;;;;4.55;3.55;;;17.20;99.90;;;;;;5031626;28;20273;-71
2022/05/17 00:19:39;;;;;;;3.53;3.17;;;17.20;99.90;;;;;;5029781;28;20464;-72
2022/05/17 00:22:05;;;;;;;3.10;2.80;;;17.20;99.90;;;;;;5035696;28;20184;-71
2022/05/17 00:24:31;;;;;;;4.03;3.20;;;17.20;99.90;;;;;;5036511;28;20233;-72
2022/05/17 00:27:01;;;;;;;3.83;3.28;;;17.20;99.90;;;;;;5032715;28;20209;-71
2022/05/17 00:29:27;;;;;;;3.97;3.20;;;17.20;99.90;;;;;;5034951;28;20177;-71
2022/05/17 00:31:52;;;;;;;4.00;3.10;;;17.20;99.90;;;;;;5029377;28;20231;-71
2022/05/17 00:34:22;;;;;;;4.43;2.70;;;17.30;99.90;;;;;;5029369;28;20169;-71
2022/05/17 00:36:47;;;;;;;3.17;2.35;;;17.30;99.90;;;;;;5035767;28;20197;-71
2022/05/17 00:39:15;;;;;;;4.28;2.55;;;17.30;99.90;;;;;;5036396;28;20170;-71
2022/05/17 00:41:43;;;;;;;6.13;2.63;;;17.30;99.90;;;;;;5036118;28;20177;-71
2022/05/17 00:47:05;;;;;;;2.67;2.22;;;17.30;99.90;;;;;;5034347;28;20204;-72
2022/05/17 00:49:39;;;;;;;3.08;1.98;;;17.30;99.90;;;;;;5033301;28;20201;-72
2022/05/17 00:52:12;;;;;;;3.30;2.30;;;17.20;99.90;;;;;;5036896;28;20257;-72
2022/05/17 00:54:47;;;;;;;2.97;2.38;;;17.20;99.90;;;;;;5034758;28;20224;-72
2022/05/17 00:57:27;;;;;;;2.92;2.50;;;17.20;99.90;;;;;;5053342;28;20198;-71
2022/05/17 00:59:54;;;;;;;3.85;2.90;;;17.20;99.90;;;;;;5036460;28;20173;-71
2022/05/17 01:02:20;;;;;;;3.70;2.60;;;17.20;99.90;;;;;;5022969;28;20178;-72
2022/05/17 01:04:46;;;;;;;4.13;2.80;;;17.10;99.90;;;;;;5024683;28;20200;-71
2022/05/17 01:07:23;;;;;;;4.93;2.55;;;17.10;99.90;;;;;;5030210;28;20284;-72
2022/05/17 01:09:49;;;;;;;3.30;2.40;;;17.00;99.90;;;;;;5030373;28;20190;-71
2022/05/17 01:12:19;;;;;;;4.18;2.35;;;17.00;99.90;;;;;;5035707;28;20169;-72
2022/05/17 01:15:00;;;;;;;6.25;2.58;;;17.00;99.90;;;;;;5032739;28;20193;-72
2022/05/17 01:17:28;;;;;;;3.38;2.50;;;16.90;99.90;;;;;;5028476;28;20367;-72
2022/05/17 01:19:54;;;;;;;4.70;2.58;;;16.80;99.90;;;;;;5035462;28;20220;-72
2022/05/17 01:22:20;;;;;;;3.08;2.53;;;16.70;99.90;;;;;;5034580;28;20234;-71
2022/05/17 01:24:46;;;;;;;2.83;2.53;;;16.70;99.90;;;;;;5029937;28;20233;-71
2022/05/17 01:27:34;;;;;;;3.92;2.55;;;16.70;99.90;;;;;;5029102;28;20191;-71
2022/05/17 01:29:59;;;;;;;3.42;2.58;;;16.60;99.90;;;;;;5031814;28;20264;-70
2022/05/17 01:32:26;;;;;;;5.55;2.78;;;16.60;99.90;;;;;;5035708;28;20268;-71
2022/05/17 01:34:51;;;;;;;3.05;2.75;;;16.50;99.90;;;;;;5056833;28;20235;-72
2022/05/17 01:37:17;;;;;;;3.85;2.65;;;16.50;99.90;;;;;;5037315;28;20194;-72
2022/05/17 01:39:44;;;;;;;3.50;2.72;;;16.50;99.90;;;;;;5030568;28;20186;-71
2022/05/17 01:42:14;;;;;;;3.90;2.75;;;16.50;99.90;;;;;;5021402;28;20265;-71
2022/05/17 01:44:44;;;;;;;4.13;2.90;;;16.40;99.90;;;;;;5036038;28;20278;-73
2022/05/17 01:47:11;;;;;;;3.65;2.80;;;16.40;99.90;;;;;;5045612;28;20197;-72
2022/05/17 01:49:39;;;;;;;2.92;2.65;;;16.40;99.90;;;;;;5038972;28;20479;-72
2022/05/17 01:52:05;;;;;;;4.80;3.10;;;16.40;99.90;;;;;;5039885;28;20275;-73
2022/05/17 01:54:30;;;;;;;3.20;2.90;;;16.40;99.90;;;;;;5038053;28;20303;-72
2022/05/17 01:56:56;;;;;;;4.30;2.92;;;16.30;99.90;;;;;;5035887;28;20232;-72
2022/05/17 01:59:24;;;;;;;4.15;3.03;;;16.40;99.90;;;;;;5034088;28;20196;-72
2022/05/17 02:01:54;;;;;;;4.30;3.38;;;16.30;99.90;;;;;;5029546;28;20232;-72
2022/05/17 02:04:22;;;;;;;3.72;3.20;;;16.30;99.90;;;;;;5038272;28;20173;-72
2022/05/17 02:06:48;;;;;;;4.43;3.17;;;16.30;99.90;;;;;;5039141;28;20177;-72
2022/05/17 02:09:13;;;;;;;3.75;3.20;;;16.30;99.90;;;;;;5038997;28;20302;-72
2022/05/17 02:11:42;;;;;;;3.70;3.10;;;16.30;99.90;;;;;;5035757;28;20177;-71
2022/05/17 02:14:08;;;;;;;4.38;3.33;;;16.20;99.90;;;;;;5036224;28;20559;-72
2022/05/17 02:16:36;;;;;;;4.65;3.20;;;16.20;99.90;;;;;;5025647;28;20193;-71
2022/05/17 02:19:06;;;;;;;4.30;2.85;;;16.20;99.90;;;;;;5037863;28;20192;-72
2022/05/17 02:21:36;;;;;;;3.88;3.10;;;16.20;99.90;;;;;;5032088;28;20198;-72
2022/05/17 02:24:03;;;;;;;4.25;3.17;;;16.20;99.90;;;;;;5044354;28;20189;-72
2022/05/17 02:26:31;;;;;;;3.88;3.03;;;16.20;99.90;;;;;;5031359;28;20326;-72
2022/05/17 02:28:57;;;;;;;4.97;3.40;;;16.10;99.90;;;;;;5042024;28;20177;-73
2022/05/17 02:31:23;;;;;;;5.07;3.38;;;16.10;99.90;;;;;;5038718;28;20251;-72
2022/05/17 02:33:49;;;;;;;3.95;3.20;;;16.10;99.90;;;;;;5037536;28;20398;-72
2022/05/17 02:36:14;;;;;;;3.50;3.20;;;16.10;99.90;;;;;;5037149;28;20215;-72
2022/05/17 02:38:43;;;;;;;4.70;3.40;;;16.10;99.90;;;;;;5031617;28;20239;-68
2022/05/17 02:41:09;;;;;;;3.38;3.00;;;16.00;99.90;;;;;;5038389;28;20177;-72
2022/05/17 02:43:35;;;;;;;4.78;3.35;;;16.00;99.90;;;;;;5038040;28;20283;-71
2022/05/17 02:46:00;;;;;;;5.65;4.05;;;16.00;99.90;;;;;;5038423;28;20303;-72
2022/05/17 02:48:28;;;;;;;4.05;3.65;;;16.00;99.90;;;;;;5037953;28;20188;-72
2022/05/17 02:50:55;;;;;;;4.93;3.65;;;16.00;99.90;;;;;;5037954;28;20284;-71
2022/05/17 02:53:21;;;;;;;4.32;3.53;;;15.90;99.90;;;;;;5038410;28;20294;-72
2022/05/17 02:55:47;;;;;;;4.05;3.65;;;15.90;99.90;;;;;;5038181;28;20307;-71
2022/05/17 02:58:13;;;;;;;4.30;3.88;;;15.90;99.90;;;;;;5037015;28;20193;-71
2022/05/17 03:00:38;;;;;;;4.25;3.83;;;15.90;99.90;;;;;;5031967;28;20235;-71
2022/05/17 03:03:08;;;;;;;4.15;3.75;;;15.90;99.90;;;;;;5038318;28;20440;-72
2022/05/17 03:05:36;;;;;;;4.90;3.83;;;15.90;99.90;;;;;;5027114;28;20189;-73
2022/05/17 03:08:01;;;;;;;4.55;3.63;;;15.90;99.90;;;;;;5032740;28;20185;-73
2022/05/17 03:10:28;;;;;;;4.28;3.60;;;15.80;99.90;;;;;;5033113;28;20228;-72
2022/05/17 03:12:56;;;;;;;4.20;3.80;;;15.80;99.90;;;;;;5035460;28;20197;-72
2022/05/17 03:15:24;;;;;;;4.35;3.65;;;15.80;99.90;;;;;;5032360;28;20204;-72
2022/05/17 03:17:50;;;;;;;4.50;3.88;;;15.80;99.90;;;;;;5035776;28;20184;-70
2022/05/17 03:20:18;;;;;;;4.53;3.78;;;15.80;99.90;;;;;;5040646;28;20276;-72
2022/05/17 03:22:44;;;;;;;5.68;3.88;;;15.80;99.90;;;;;;5038301;28;20212;-72
2022/05/17 03:25:12;;;;;;;3.83;3.42;;;15.80;99.90;;;;;;5029964;28;20193;-72
2022/05/17 03:27:38;;;;;;;4.63;3.60;;;15.80;99.90;;;;;;5034393;28;20178;-73
2022/05/17 03:30:05;;;;;;;5.43;4.00;;;15.80;99.90;;;;;;5025896;28;20319;-71
2022/05/17 03:32:31;;;;;;;7.97;6.43;;;15.70;99.90;;;;;;5044095;28;20338;-72
2022/05/17 03:34:57;;;;;;;6.30;5.50;;;15.70;99.90;;;;;;5032008;28;20197;-71
2022/05/17 03:37:22;;;;;;;6.50;5.10;;;15.70;99.90;;;;;;5037032;28;20177;-72
2022/05/17 03:39:52;;;;;;;8.90;8.00;;;15.70;99.90;;;;;;5035286;28;20196;-72
2022/05/17 03:42:24;;;;;;;10.38;8.93;;;15.70;99.90;;;;;;5019272;28;20466;-72
2022/05/17 03:44:50;;;;;;;7.82;6.85;;;15.70;99.90;;;;;;5032181;28;20203;-72
2022/05/17 03:47:16;;;;;;;8.02;6.90;;;15.70;99.90;;;;;;5027996;28;20181;-71
2022/05/17 03:49:41;;;;;;;6.45;5.75;;;15.70;99.90;;;;;;5033440;28;20170;-73
2022/05/17 03:52:08;;;;;;;6.25;5.00;;;15.70;99.90;;;;;;5041896;28;20323;-71
2022/05/17 03:54:35;;;;;;;6.57;4.47;;;15.70;99.90;;;;;;5036773;28;20212;-72
2022/05/17 03:57:04;;;;;;;6.43;4.75;;;15.70;99.90;;;;;;5044195;28;20173;-72
2022/05/17 03:59:33;;;;;;;5.28;4.30;;;15.70;99.90;;;;;;5037128;28;20475;-71
2022/05/17 04:02:02;;;;;;;5.53;4.28;;;15.70;99.90;;;;;;5034112;28;20214;-65
2022/05/17 04:04:30;;;;;;;5.38;4.72;;;15.70;99.90;;;;;;5020514;28;20190;-65
2022/05/17 04:06:58;;;;;;;5.53;4.30;;;15.70;99.90;;;;;;5035160;28;20201;-65
2022/05/17 04:09:23;;;;;;;4.50;3.83;;;15.80;99.90;;;;;;5045707;28;20172;-64
2022/05/17 04:11:49;;;;;;;4.75;4.07;;;15.80;99.90;;;;;;5053755;28;20183;-65
2022/05/17 04:14:14;;;;;;;4.13;3.70;;;15.80;99.90;;;;;;5050997;28;20196;-65
2022/05/17 04:16:40;;;;;;;5.03;4.47;;;15.80;99.90;;;;;;5036590;28;20197;-66
2022/05/17 04:19:09;;;;;;;4.55;4.10;;;15.80;99.90;;;;;;5033134;28;20228;-65
2022/05/17 04:21:35;;;;;;;4.60;4.20;;;15.80;99.90;;;;;;5035145;28;20189;-65
2022/05/17 04:24:01;;;;;;;6.20;4.55;;;15.90;99.90;;;;;;5036286;28;20184;-64
2022/05/17 04:26:29;;;;;;;5.57;4.75;;;15.90;99.90;;;;;;5033046;28;20170;-65
2022/05/17 04:28:54;;;;;;;6.25;4.50;;;15.90;99.90;;;;;;5029215;28;20196;-66
2022/05/17 04:31:20;;;;;;;5.97;4.32;;;15.90;99.90;;;;;;5036481;28;20197;-66
2022/05/17 04:33:45;;;;;;;5.60;4.53;;;16.00;99.90;;;;;;5036981;28;20263;-65
2022/05/17 04:36:11;;;;;;;5.25;4.32;;;16.00;99.90;;;;;;5036079;28;20267;-66
2022/05/17 04:38:39;;;;;;;4.65;4.10;;;16.00;99.90;;;;;;5033742;28;20235;-65
2022/05/17 04:41:07;;;;;;;4.25;3.85;;;16.10;99.90;;;;;;5029269;28;20276;-66
2022/05/17 04:43:33;;;;;;;4.15;3.75;;;16.10;99.90;;;;;;5048846;28;20202;-64
2022/05/17 04:45:59;;;;;;;4.32;3.70;;;16.10;99.90;;;;;;5034950;28;20192;-65
2022/05/17 04:48:24;;;;;;;4.22;3.83;;;16.20;99.90;;;;;;5027814;28;20186;-65
2022/05/17 04:50:51;;;;;;;4.72;3.78;;;16.20;99.90;;;;;;5037852;28;20184;-66
2022/05/17 04:53:17;;;;;;;4.03;3.60;;;16.20;99.90;;;;;;5036994;28;20177;-65
2022/05/17 04:55:43;;;;;;;4.95;3.20;;;16.30;99.90;;;;;;5036617;28;20231;-66
2022/05/17 04:58:11;;;;;;;3.60;3.22;;;16.30;99.90;;;;;;5041424;28;20169;-65
2022/05/17 05:00:37;;;;;;;3.92;3.53;;;16.30;99.90;;;;;;5036505;28;20273;-65
2022/05/17 05:03:03;;;;;;;5.80;3.97;;;16.40;99.90;;;;;;5036577;28;20197;-65
2022/05/17 05:05:29;;;;;;;4.38;3.42;;;16.40;99.90;;;;;;5036624;28;20173;-64
2022/05/17 05:07:54;;;;;;;4.10;3.58;;;16.50;99.90;;;;;;5035361;28;20201;-65
2022/05/17 05:10:21;;;;;;;4.35;3.30;;;16.50;99.90;;;;;;5033657;28;20182;-65
2022/05/17 05:12:46;;;;;;;4.32;3.30;;;16.60;99.90;;;;;;5036290;28;20247;-65
2022/05/17 05:15:13;;;;;;;3.90;3.50;;;16.60;99.90;;;;;;5035945;28;20368;-67
2022/05/17 05:17:41;;;;;;;4.38;3.25;;;16.70;99.90;;;;;;5035238;28;20300;-67
2022/05/17 05:20:13;;;;;;;4.43;3.50;;;16.70;99.90;;;;;;5035474;28;20205;-68
2022/05/17 05:22:39;;;;;;;4.78;4.00;;;16.70;99.90;;;;;;5034827;28;20226;-67
2022/05/17 05:25:05;;;;;;;3.95;3.40;;;16.80;99.90;;;;;;5035072;28;20192;-66
2022/05/17 05:27:34;;;;;;;4.35;3.67;;;16.90;99.90;;;;;;5032776;28;20225;-67
2022/05/17 05:30:01;;;;;;;5.85;4.00;;;16.90;99.90;;;;;;5036253;28;20181;-66
2022/05/17 05:32:26;;;;;;;4.10;3.40;;;17.00;99.90;;;;;;5034430;28;20189;-65
2022/05/17 05:34:52;;;;;;;4.93;3.88;;;17.00;99.90;;;;;;5035510;28;20236;-65
2022/05/17 05:37:20;;;;;;;5.07;3.63;;;17.00;99.90;;;;;;5052165;28;20239;-65
2022/05/17 05:39:48;;;;;;;3.55;3.25;;;17.10;99.90;;;;;;5016965;28;20202;-65
2022/05/17 05:42:16;;;;;;;4.90;3.55;;;17.20;99.90;;;;;;5015577;28;20170;-65
2022/05/17 05:44:42;;;;;;;4.10;3.70;;;17.20;99.90;;;;;;5029057;28;20544;-64
2022/05/17 05:47:07;;;;;;;4.60;4.10;;;17.20;99.90;;;;;;5035284;28;20209;-65
2022/05/17 05:49:33;;;;;;;4.65;4.22;;;17.30;99.90;;;;;;5035553;28;20181;-64
2022/05/17 05:51:59;;;;;;;5.85;4.45;;;17.30;99.90;;;;;;5022743;28;20239;-66
2022/05/17 05:54:27;;;;;;;4.65;3.85;;;17.40;99.90;;;;;;5032953;28;20211;-64
2022/05/17 05:56:52;;;;;;;4.70;4.20;;;17.40;99.90;;;;;;5033235;28;20200;-65
2022/05/17 05:59:20;;;;;;;5.13;4.30;;;17.40;99.90;;;;;;5035042;28;20326;-66
2022/05/17 06:01:48;;;;;;;5.65;4.20;;;17.50;99.90;;;;;;5035086;28;20248;-65
2022/05/17 06:04:14;;;;;;;4.53;4.10;;;17.50;99.90;;;;;;5035141;28;20420;-65
2022/05/17 06:06:42;;;;;;;4.55;4.05;;;17.50;99.90;;;;;;5035030;28;20174;-66
2022/05/17 06:09:07;;;;;;;4.93;4.43;;;17.50;99.90;;;;;;5035408;28;20212;-65
2022/05/17 06:11:35;;;;;;;4.40;4.00;;;17.60;99.90;;;;;;5035198;28;20178;-64
2022/05/17 06:14:04;;;;;;;7.07;4.28;;;17.70;99.90;;;;;;5034977;28;20179;-65
2022/05/17 06:16:29;;;;;;;6.03;4.38;;;17.70;99.90;;;;;;5035074;28;20197;-65
2022/05/17 06:18:55;;;;;;;5.78;4.30;;;17.70;99.90;;;;;;5051969;28;20177;-65
2022/05/17 06:21:21;;;;;;;5.78;4.20;;;17.80;99.90;;;;;;5035035;28;20219;-66
2022/05/17 06:23:47;;;;;;;6.43;4.47;;;17.80;99.90;;;;;;5030896;28;20340;-65
2022/05/17 06:26:12;;;;;;;5.50;4.60;;;17.90;99.90;;;;;;5019051;28;20201;-65
2022/05/17 06:28:38;;;;;;;4.55;4.10;;;17.90;99.90;;;;;;5024694;28;20311;-65
2022/05/17 06:31:04;;;;;;;4.50;3.97;;;18.00;99.90;;;;;;5039013;28;20235;-65
2022/05/17 06:33:34;;;;;;;5.30;3.80;;;18.10;99.90;;;;;;5026744;28;20196;-65
2022/05/17 06:36:07;;;;;;;5.13;3.85;;;18.20;99.90;;;;;;5055810;28;20285;-66
2022/05/17 06:38:34;;;;;;;6.18;3.95;;;18.30;99.90;;;;;;5039007;28;20174;-65
2022/05/17 06:40:59;;;;;;;4.63;4.13;;;18.40;99.90;;;;;;5035312;28;20170;-65
2022/05/17 06:43:28;;;;;;;4.95;3.83;;;18.50;99.90;;;;;;5035971;28;20205;-65
2022/05/17 06:45:56;;;;;;;5.18;4.50;;;18.60;99.90;;;;;;5037975;28;20177;-65
2022/05/17 06:48:24;;;;;;;8.10;3.80;;;18.70;99.90;;;;;;5038587;28;20208;-66
2022/05/17 06:50:51;;;;;;;5.05;4.28;;;18.80;99.90;;;;;;5055677;28;20181;-66
2022/05/17 06:53:24;;;;;;;5.03;4.53;;;18.90;99.90;;;;;;5032495;28;20233;-66
2022/05/17 06:55:55;;;;;;;5.72;4.15;;;18.90;99.90;;;;;;5018620;28;20217;-65
2022/05/17 06:58:20;;;;;;;4.88;4.30;;;19.00;99.90;;;;;;5034413;28;20249;-65
2022/05/17 07:00:46;;;;;;;4.60;4.20;;;19.10;99.90;;;;;;5038268;28;20270;-66
2022/05/17 07:03:11;;;;;;;4.93;4.10;;;19.10;99.90;;;;;;5038175;28;20204;-66
2022/05/17 07:05:37;;;;;;;4.90;4.03;;;19.20;99.90;;;;;;5038175;28;20197;-66
2022/05/17 07:08:03;;;;;;;5.63;3.95;;;19.20;99.90;;;;;;5038217;28;20203;-65
2022/05/17 07:13:17;;;;;;;5.80;4.30;;;19.40;99.90;;;;;;5055582;28;20180;-65
2022/05/17 07:15:46;;;;;;;6.97;4.50;;;19.50;99.90;;;;;;5023764;28;20200;-65
2022/05/17 07:18:17;;;;;;;6.63;4.38;;;19.50;99.90;;;;;;5018429;28;20190;-65
2022/05/17 07:20:48;;;;;;;5.68;3.85;;;19.60;99.90;;;;;;5018220;28;20166;-65
2022/05/17 07:23:15;;;;;;;5.93;4.07;;;19.60;99.90;;;;;;5018036;28;20198;-65
2022/05/17 07:25:43;;;;;;;8.25;4.70;;;19.70;99.90;;;;;;5031335;28;20192;-66
2022/05/17 07:28:13;;;;;;;5.47;4.30;;;19.70;99.90;;;;;;5037520;28;20264;-64
2022/05/17 07:30:42;;;;;;;5.35;4.25;;;19.80;99.90;;;;;;5034063;28;20260;-66
2022/05/17 07:33:10;;;;;;;4.78;3.97;;;19.80;99.90;;;;;;5037243;28;20181;-66
2022/05/17 07:35:38;;;;;;;5.35;4.28;;;19.90;99.90;;;;;;5031036;28;20273;-65
2022/05/17 07:38:06;;;;;;;6.03;4.43;;;20.00;99.90;;;;;;5037344;28;20177;-66
2022/05/17 07:40:32;;;;;;;6.25;4.55;;;20.00;99.90;;;;;;5040254;28;20386;-66
2022/05/17 07:43:00;;;;;;;5.40;4.32;;;20.10;99.90;;;;;;5033668;28;20196;-64
2022/05/17 07:45:33;;;;;;;6.10;4.60;;;20.20;99.90;;;;;;5033984;28;20193;-66
2022/05/17 07:47:59;;;;;;;8.65;5.15;;;20.40;99.90;;;;;;5037415;28;20360;-66
2022/05/17 07:50:25;;;;;;;7.68;4.80;;;20.50;99.90;;;;;;5037456;28;20189;-66
2022/05/17 07:52:50;;;;;;;6.78;3.83;;;20.60;99.90;;;;;;5037092;28;20208;-65
2022/05/17 07:55:19;;;;;;;5.20;4.35;;;20.70;99.90;;;;;;5035155;28;20193;-66
2022/05/17 07:57:44;;;;;;;5.97;4.60;;;20.80;99.90;;;;;;5017305;28;20198;-66
2022/05/17 08:00:13;;;;;;;5.80;5.20;;;20.90;99.90;;;;;;5017147;28;20204;-66
2022/05/17 08:02:38;;;;;;;10.05;4.30;;;21.00;99.90;;;;;;5047044;28;20211;-66
2022/05/17 08:05:05;;;;;;;6.57;4.35;;;21.10;99.90;;;;;;5037470;28;20272;-67
2022/05/17 08:07:30;;;;;;;7.50;5.65;;;21.20;99.90;;;;;;5036837;28;20178;-64
2022/05/17 08:10:01;;;;;;;5.93;5.10;;;21.30;99.90;;;;;;5036721;28;20229;-67
2022/05/17 08:12:26;;;;;;;6.45;4.97;;;21.40;99.90;;;;;;5037195;28;20162;-63
2022/05/17 08:14:54;;;;;;;7.05;4.93;;;21.50;99.90;;;;;;5036081;28;20223;-66
2022/05/17 08:17:23;;;;;;;6.00;4.95;;;21.60;99.90;;;;;;5036319;28;20177;-66
2022/05/17 08:19:53;;;;;;;5.57;4.90;;;21.70;99.90;;;;;;5023015;28;20208;-66
2022/05/17 08:22:19;;;;;;;5.13;4.40;;;21.80;99.90;;;;;;5036334;28;20181;-67
2022/05/17 08:27:32;;;;;;;6.68;5.05;;;22.00;99.90;;;;;;5042691;28;20260;-66
2022/05/17 08:30:07;;;;;;;5.55;4.50;;;22.10;99.90;;;;;;5041401;28;20205;-66
2022/05/17 08:35:29;;;;;;;6.85;4.50;;;22.30;99.90;;;;;;5054119;28;20204;-64
2022/05/17 08:37:57;;;;;;;6.35;4.25;;;22.40;99.90;;;;;;5030692;28;20193;-66
2022/05/17 08:40:23;;;;;;;6.38;4.35;;;22.50;99.90;;;;;;5023266;28;20173;-66
2022/05/17 08:43:07;;;;;;;4.07;3.67;;;22.60;99.90;;;;;;5036064;28;20208;-66
2022/05/17 08:45:53;;;;;;;4.93;4.05;;;22.70;99.90;;;;;;5036370;28;20177;-66
2022/05/17 08:48:19;;;;;;;6.35;4.50;;;22.80;99.90;;;;;;5036453;28;20172;-66
2022/05/17 08:50:48;;;;;;;5.65;4.10;;;23.00;99.90;;;;;;5035370;28;20173;-67
2022/05/17 08:53:20;;;;;;;5.10;3.70;;;23.10;99.90;;;;;;5035876;28;20257;-65
2022/05/17 08:55:50;;;;;;;6.55;4.00;;;23.10;99.90;;;;;;5036229;28;20201;-66
2022/05/17 08:58:19;;;;;;;5.05;3.35;;;23.30;99.90;;;;;;5036035;28;20239;-67
2022/05/17 09:00:56;;;;;;;4.65;3.20;;;23.40;99.90;;;;;;5034930;28;20194;-66
2022/05/17 09:03:56;;;;;;;4.75;3.22;;;23.50;99.90;;;;;;5035937;28;20201;-66
2022/05/17 09:07:00;;;;;;;4.70;3.05;;;23.60;99.90;;;;;;5034993;28;20201;-66
2022/05/17 09:09:55;;;;;;;4.88;3.25;;;23.70;99.90;;;;;;4984271;28;20378;-67
2022/05/17 09:12:39;;;;;;;4.88;3.45;;;23.90;99.90;;;;;;5009804;28;20208;-66
2022/05/17 09:15:08;;;;;;;4.85;3.03;;;24.00;99.90;;;;;;5035734;28;20209;-65
2022/05/17 09:17:34;;;;;;;5.05;2.83;;;24.10;99.90;;;;;;5023056;28;20202;-66
2022/05/17 09:20:02;;;;;;;5.00;2.97;;;24.20;99.90;;;;;;5028515;28;20184;-65
2022/05/17 09:22:30;;;;;;;4.75;3.20;;;24.30;99.90;;;;;;5023662;28;20186;-65
2022/05/17 09:25:02;;;;;;;3.70;3.00;;;24.40;99.90;;;;;;5030573;28;20270;-66
2022/05/17 09:27:37;;;;;;;4.57;2.90;;;24.40;99.90;;;;;;5035853;28;20169;-67
2022/05/17 09:30:30;;;;;;;4.93;2.95;;;24.50;99.90;;;;;;5035201;28;20208;-66
2022/05/17 09:33:11;;;;;;;3.30;2.45;;;24.60;99.90;;;;;;5035571;28;20504;-67
2022/05/17 09:35:43;;;;;;;2.92;2.15;;;24.70;99.90;;;;;;5035287;28;20204;-67
2022/05/17 09:38:13;;;;;;;5.97;2.10;;;24.80;99.90;;;;;;5035907;28;20211;-66
2022/05/17 09:40:40;;;;;;;3.13;2.20;;;24.90;99.90;;;;;;5035205;28;20197;-66
2022/05/17 09:43:11;;;;;;;5.38;2.15;;;25.00;99.90;;;;;;5035152;28;20188;-68
2022/05/17 09:45:49;;;;;;;2.85;2.10;;;25.20;99.90;;;;;;5035211;28;20173;-66
2022/05/17 09:48:32;;;;;;;3.63;2.50;;;25.30;99.90;;;;;;5035354;28;20187;-67
2022/05/17 09:53:50;;;;;;;4.13;2.30;;;25.60;99.90;;;;;;5052712;28;20254;-67
2022/05/17 09:56:23;;;;;;;3.42;1.90;;;25.70;99.90;;;;;;5035205;28;20189;-66
2022/05/17 09:58:49;;;;;;;4.13;2.05;;;25.80;99.90;;;;;;5035217;28;20204;-66
2022/05/17 10:01:25;;;;;;;4.20;1.90;;;25.90;99.90;;;;;;5035308;28;20230;-67
2022/05/17 10:04:17;;;;;;;4.97;2.08;;;26.10;99.90;;;;;;5038924;28;20201;-67
2022/05/17 10:06:46;;;;;;;3.47;1.52;;;26.10;99.90;;;;;;5038854;28;20263;-67
2022/05/17 10:09:28;;;;;;;1.98;1.60;;;26.10;99.90;;;;;;5039169;28;20232;-67
2022/05/17 10:12:07;;;;;;;2.88;1.70;;;26.10;99.90;;;;;;5034046;28;20174;-65
2022/05/17 10:15:10;;;;;;;2.35;1.42;;;26.00;99.90;;;;;;5026101;28;20293;-66
2022/05/17 10:17:55;;;;;;;2.70;1.67;;;25.90;99.90;;;;;;5030584;28;20188;-67
2022/05/17 10:20:29;;;;;;;2.63;1.55;;;25.90;99.90;;;;;;5039244;28;20212;-64
2022/05/17 10:23:03;;;;;;;2.75;1.60;;;25.80;99.90;;;;;;5038790;28;20195;-66
2022/05/17 10:25:50;;;;;;;2.47;1.42;;;25.80;99.90;;;;;;5039169;28;20215;-66
2022/05/17 10:28:29;;;;;;;2.10;1.40;;;25.80;99.90;;;;;;5039735;28;20292;-66
2022/05/17 10:31:01;;;;;;;2.78;1.58;;;25.90;99.90;;;;;;5038767;28;20347;-66
2022/05/17 10:33:42;;;;;;;1.67;1.40;;;25.90;99.90;;;;;;5028873;28;20182;-66
2022/05/17 10:36:30;;;;;;;2.55;1.33;;;26.10;99.90;;;;;;5043801;28;20201;-64
2022/05/17 10:39:17;;;;;;;1.90;1.35;;;26.10;99.90;;;;;;5039934;28;20212;-66
2022/05/17 10:41:45;;;;;;;3.05;1.40;;;26.20;99.90;;;;;;5053738;28;20213;-65
2022/05/17 10:44:16;;;;;;;2.72;1.50;;;26.20;99.90;;;;;;5023232;28;20263;-66
2022/05/17 10:46:51;;;;;;;2.03;1.20;;;26.30;99.90;;;;;;5039504;28;20184;-66
2022/05/17 10:50:18;;;;;;;2.67;1.40;;;26.30;99.90;;;;;;5039403;28;20283;-66
2022/05/17 10:52:44;;;;;;;3.47;1.35;;;26.30;99.90;;;;;;4959768;28;20263;-67
2022/05/17 10:55:17;;;;;;;2.13;1.48;;;26.30;99.90;;;;;;4976290;28;20219;-67
2022/05/17 10:58:18;;;;;;;2.65;1.48;;;26.40;99.90;;;;;;4995418;28;20268;-65
2022/05/17 11:00:54;;;;;;;2.38;1.20;;;26.40;99.90;;;;;;5038048;28;20208;-65
2022/05/17 11:03:41;;;;;;;4.35;1.50;;;26.40;99.90;;;;;;5038550;28;20165;-66
2022/05/17 11:06:11;;;;;;;1.77;1.13;;;26.40;99.90;;;;;;5038222;28;20209;-66
2022/05/17 11:08:55;;;;;;;2.28;1.10;;;26.40;99.90;;;;;;5038583;28;20181;-66
2022/05/17 11:11:40;;;;;;;1.70;1.08;;;26.40;99.90;;;;;;5038582;28;20231;-69
2022/05/17 11:14:27;;;;;;;1.23;0.95;;;26.40;99.90;;;;;;5034618;28;20184;-65
2022/05/17 11:17:07;;;;;;;1.73;1.00;;;26.40;99.90;;;;;;5036053;28;20197;-66
2022/05/17 11:19:38;;;;;;;1.65;1.00;;;26.50;99.90;;;;;;5036827;28;20250;-67
2022/05/17 11:22:17;;;;;;;2.00;0.93;;;26.50;99.90;;;;;;5038100;28;20169;-63
2022/05/17 11:25:23;;;;;;;1.23;1.02;;;26.50;99.90;;;;;;5037622;28;20308;-66
2022/05/17 11:28:04;;;;;;;1.35;0.90;;;26.60;99.90;;;;;;5049998;28;20184;-66
2022/05/17 11:30:55;;;;;;;2.53;0.95;;;26.70;99.90;;;;;;5037953;28;20219;-66
2022/05/17 11:33:26;;;;;;;1.38;0.80;;;26.70;99.90;;;;;;5026525;28;20176;-67
2022/05/17 11:36:13;;;;;;;0.95;0.70;;;26.80;99.90;;;;;;5044002;28;20293;-66
2022/05/17 11:38:48;;;;;;;1.48;0.90;;;26.90;99.90;;;;;;5038784;28;20177;-66
2022/05/17 11:41:24;;;;;;;2.22;1.10;;;27.00;99.90;;;;;;5022392;28;20228;-66
2022/05/17 11:43:54;;;;;;;2.83;1.05;;;27.00;99.90;;;;;;5037051;28;20173;-67
2022/05/17 11:46:29;;;;;;;1.40;0.90;;;27.10;99.90;;;;;;5037332;28;20264;-67
2022/05/17 11:49:00;;;;;;;2.70;1.00;;;27.20;99.90;;;;;;5037131;28;20196;-67
2022/05/17 11:51:35;;;;;;;2.08;1.00;;;27.30;99.90;;;;;;5034290;28;20181;-66
2022/05/17 11:54:03;;;;;;;2.50;0.98;;;27.30;99.90;;;;;;5037394;28;20169;-67
2022/05/17 11:56:32;;;;;;;2.35;1.05;;;27.40;99.90;;;;;;5033855;28;20208;-66
2022/05/17 11:59:09;;;;;;;4.90;1.17;;;27.50;99.90;;;;;;5017825;28;20204;-66
2022/05/17 12:01:35;;;;;;;1.60;1.15;;;27.70;99.90;;;;;;5017645;28;20177;-67
2022/05/17 12:04:02;;;;;;;1.27;1.00;;;27.90;99.90;;;;;;5036559;28;20197;-67
2022/05/17 12:06:58;;;;;;;2.85;0.75;;;28.10;99.90;;;;;;5037748;28;20318;-67
2022/05/17 12:09:24;;;;;;;2.17;0.75;;;28.40;99.90;;;;;;5037218;28;20197;-67
2022/05/17 12:11:50;;;;;;;2.78;0.82;;;28.70;99.90;;;;;;5037016;28;20204;-67
2022/05/17 12:14:21;;;;;;;1.73;1.00;;;29.00;99.90;;;;;;5036796;28;20181;-66
2022/05/17 12:17:02;;;;;;;1.75;1.00;;;29.30;99.90;;;;;;5042091;28;20262;-67
2022/05/17 12:19:44;;;;;;;1.75;1.08;;;29.70;99.90;;;;;;5032668;28;20360;-66
2022/05/17 12:22:29;;;;;;;2.20;1.10;;;29.90;99.90;;;;;;5052185;28;20168;-65
2022/05/17 12:24:58;;;;;;;1.27;0.80;;;30.10;99.90;;;;;;5016695;28;20199;-67
2022/05/17 12:27:33;;;;;;;2.80;1.20;;;30.20;99.90;;;;;;5026734;28;20236;-66
2022/05/17 12:30:53;;;;;;;2.08;1.02;;;30.30;99.90;;;;;;5031657;28;20441;-67
2022/05/17 12:33:43;;;;;;;1.55;0.98;;;30.30;99.90;;;;;;4975999;28;20398;-66
2022/05/17 12:36:27;;;;;;;1.33;0.90;;;30.20;99.90;;;;;;5030247;28;20226;-66
2022/05/17 12:44:38;;;;;;;2.40;0.73;;;29.80;99.90;;;;;;5033819;28;20255;-66
2022/05/17 12:47:28;;;;;;;1.00;0.70;;;29.60;99.90;;;;;;5017720;28;20177;-66
2022/05/17 12:49:56;;;;;;;3.80;1.10;;;29.50;99.90;;;;;;5035372;28;20295;-66
2022/05/17 12:52:41;;;;;;;1.00;0.70;;;29.40;99.90;;;;;;5036189;28;20181;-66
2022/05/17 12:55:24;;;;;;;1.08;0.75;;;29.30;99.90;;;;;;5027494;28;20209;-67
2022/05/17 12:57:52;;;;;;;2.38;0.80;;;29.20;99.90;;;;;;5016476;28;20182;-67
2022/05/17 13:00:29;;;;;;;1.45;0.90;;;29.20;99.90;;;;;;5020076;28;20194;-67
2022/05/17 13:03:01;;;;;;;1.35;0.90;;;29.20;99.90;;;;;;5034452;28;20194;-67
2022/05/17 13:05:43;;;;;;;1.92;1.00;;;29.30;99.90;;;;;;5035590;28;20207;-66
2022/05/17 13:08:17;;;;;;;2.15;0.93;;;29.40;99.90;;;;;;5035819;28;20168;-65
2022/05/17 13:11:03;;;;;;;1.60;1.02;;;29.60;99.90;;;;;;5033698;28;20173;-66
2022/05/17 13:13:34;;;;;;;2.08;0.90;;;29.80;99.90;;;;;;5035733;28;20200;-66
2022/05/17 13:16:04;;;;;;;2.03;1.02;;;30.10;99.90;;;;;;5035745;28;20283;-67
2022/05/17 13:18:54;;;;;;;1.95;0.93;;;30.30;99.90;;;;;;5035541;28;20300;-66
2022/05/17 13:21:37;;;;;;;2.00;1.02;;;30.40;99.90;;;;;;5031604;28;20253;-67
2022/05/17 13:24:09;;;;;;;2.13;1.13;;;30.40;99.90;;;;;;5019614;28;20212;-67
2022/05/17 13:26:45;;;;;;;2.38;0.90;;;30.40;99.90;;;;;;5024216;28;20173;-67